Time;durP1;ratioP1;P1;durP2;ratioP2;P2;SDS_P1;SDS_P2;PMS_P1;PMS_P2;Temp;Humidity;BMP_temperature;BMP_pressure;BME280_temperature;BME280_humidity;BME280_pressure;Samples;Min_cycle;Max_cycle;Signal;HPM_P1;HPM_P2
2023/08/11 00:01:35;;;;;;;2.13;1.20;;;18.10;88.60;;;;;;6197500;23;20031;-80
2023/08/11 00:04:00;;;;;;;2.15;1.20;;;18.10;88.60;;;;;;6198564;23;20437;-80
2023/08/11 00:06:26;;;;;;;2.03;1.20;;;18.10;88.70;;;;;;6199233;23;20470;-80
2023/08/11 00:08:54;;;;;;;2.17;1.20;;;18.10;88.80;;;;;;6197753;23;20012;-81
2023/08/11 00:11:20;;;;;;;2.40;1.30;;;18.00;88.80;;;;;;6198638;23;20444;-79
2023/08/11 00:13:45;;;;;;;2.80;1.20;;;18.00;88.90;;;;;;6196557;23;20012;-81
2023/08/11 00:16:12;;;;;;;2.00;1.25;;;18.00;89.00;;;;;;6200015;23;20040;-81
2023/08/11 00:18:37;;;;;;;1.67;1.15;;;18.00;89.10;;;;;;6200702;23;20001;-81
2023/08/11 00:21:03;;;;;;;1.27;1.10;;;18.00;89.10;;;;;;6200487;23;20008;-81
2023/08/11 00:23:30;;;;;;;2.33;1.30;;;18.00;89.20;;;;;;6199628;23;19997;-80
2023/08/11 00:25:55;;;;;;;1.95;1.30;;;18.00;89.20;;;;;;6198870;23;20324;-80
2023/08/11 00:28:21;;;;;;;2.13;1.25;;;18.00;89.20;;;;;;6198383;23;20152;-81
2023/08/11 00:30:46;;;;;;;2.53;1.20;;;18.00;89.20;;;;;;6198745;23;20005;-81
2023/08/11 00:33:12;;;;;;;1.40;1.10;;;18.00;89.20;;;;;;6198922;23;20507;-82
2023/08/11 00:35:40;;;;;;;2.47;1.20;;;18.00;89.30;;;;;;6197097;23;20001;-81
2023/08/11 00:38:06;;;;;;;2.20;1.20;;;18.00;89.30;;;;;;6196502;23;20088;-81
2023/08/11 00:40:31;;;;;;;1.50;1.10;;;18.00;89.40;;;;;;6196033;23;20001;-79
2023/08/11 00:42:57;;;;;;;2.00;1.30;;;18.00;89.40;;;;;;6198526;23;20340;-81
2023/08/11 00:45:23;;;;;;;2.33;1.38;;;18.00;89.40;;;;;;6196627;23;20481;-79
2023/08/11 00:47:49;;;;;;;1.55;1.13;;;18.00;89.40;;;;;;6196912;23;20205;-79
2023/08/11 00:50:17;;;;;;;2.28;1.40;;;18.00;89.40;;;;;;6196885;23;20052;-80
2023/08/11 00:52:48;;;;;;;2.60;1.33;;;18.00;89.40;;;;;;6194718;23;20050;-79
2023/08/11 00:55:14;;;;;;;2.58;1.42;;;18.00;89.90;;;;;;6193025;23;20005;-81
2023/08/11 00:57:40;;;;;;;2.25;1.30;;;18.00;89.40;;;;;;6193040;23;20012;-80
2023/08/11 01:00:13;;;;;;;2.22;1.30;;;18.00;89.40;;;;;;6218220;23;20527;-79
2023/08/11 01:02:44;;;;;;;1.73;1.30;;;18.00;89.40;;;;;;6194848;23;20056;-81
2023/08/11 01:05:14;;;;;;;2.10;1.30;;;18.00;89.50;;;;;;6191372;23;20362;-79
2023/08/11 01:07:55;;;;;;;2.67;1.30;;;18.00;89.30;;;;;;6190707;23;20015;-79
2023/08/11 01:11:18;;;;;;;2.33;1.40;;;18.00;89.40;;;;;;6191080;23;20241;-80
2023/08/11 01:13:52;;;;;;;2.55;1.17;;;18.00;89.30;;;;;;6070484;23;20015;-80
2023/08/11 01:16:20;;;;;;;1.67;1.10;;;18.00;89.20;;;;;;6190783;23;20005;-79
2023/08/11 01:18:47;;;;;;;1.75;1.17;;;18.10;89.10;;;;;;6192636;23;20008;-79
2023/08/11 01:21:16;;;;;;;2.28;1.30;;;18.10;89.00;;;;;;6189977;23;20001;-80
2023/08/11 01:23:42;;;;;;;2.60;1.30;;;18.10;88.90;;;;;;6191516;23;20050;-78
2023/08/11 01:26:08;;;;;;;1.70;1.20;;;18.10;88.90;;;;;;6189073;23;20005;-80
2023/08/11 01:28:36;;;;;;;1.92;1.20;;;18.10;88.70;;;;;;6192589;23;20061;-79
2023/08/11 01:31:03;;;;;;;2.10;1.23;;;18.10;88.70;;;;;;6189049;23;20001;-80
2023/08/11 01:33:28;;;;;;;2.15;1.25;;;18.10;88.70;;;;;;6187505;23;20028;-80
2023/08/11 01:35:54;;;;;;;2.15;1.20;;;18.10;88.80;;;;;;6189066;23;20001;-79
2023/08/11 01:38:19;;;;;;;1.90;1.20;;;18.10;88.80;;;;;;6193118;23;20065;-79
2023/08/11 01:40:45;;;;;;;2.10;1.20;;;18.00;89.00;;;;;;6190835;23;20334;-79
2023/08/11 01:43:13;;;;;;;1.88;1.13;;;18.10;89.10;;;;;;6190626;23;20005;-79
2023/08/11 01:45:40;;;;;;;1.73;1.20;;;18.00;89.10;;;;;;6190945;23;20005;-79
2023/08/11 01:48:07;;;;;;;1.65;1.30;;;18.00;89.20;;;;;;6189163;23;20009;-79
2023/08/11 01:50:34;;;;;;;2.63;1.45;;;18.00;89.30;;;;;;6214492;23;20005;-79
2023/08/11 01:53:00;;;;;;;2.40;1.30;;;18.00;89.40;;;;;;6188588;23;20009;-79
2023/08/11 01:55:26;;;;;;;2.45;1.33;;;18.00;89.50;;;;;;6186968;23;20578;-80
2023/08/11 01:57:52;;;;;;;1.95;1.08;;;18.00;89.70;;;;;;6188053;23;20009;-80
2023/08/11 02:00:18;;;;;;;2.20;1.30;;;18.00;89.60;;;;;;6190918;23;19997;-79
2023/08/11 02:02:45;;;;;;;2.10;1.30;;;18.00;89.60;;;;;;6190473;23;20005;-79
2023/08/11 02:05:12;;;;;;;2.60;1.25;;;17.90;89.60;;;;;;6189415;23;20001;-79
2023/08/11 02:07:38;;;;;;;2.72;1.48;;;18.00;89.70;;;;;;6186040;23;20009;-79
2023/08/11 02:10:04;;;;;;;2.67;1.42;;;17.90;89.70;;;;;;6187285;23;20103;-79
2023/08/11 02:12:30;;;;;;;3.55;1.50;;;18.00;89.70;;;;;;6186790;23;20005;-79
2023/08/11 02:14:56;;;;;;;2.67;1.40;;;17.90;89.70;;;;;;6186994;23;20001;-79
2023/08/11 02:17:21;;;;;;;2.28;1.30;;;18.00;89.70;;;;;;6212080;23;20013;-79
2023/08/11 02:19:47;;;;;;;1.85;1.20;;;17.90;89.70;;;;;;6186269;23;20008;-79
2023/08/11 02:22:13;;;;;;;2.20;1.40;;;17.90;89.70;;;;;;6185831;23;20412;-77
2023/08/11 02:24:38;;;;;;;2.50;1.38;;;17.90;89.60;;;;;;6185649;23;20080;-79
2023/08/11 02:27:04;;;;;;;2.80;1.40;;;17.90;89.60;;;;;;6186954;23;20012;-79
2023/08/11 02:29:30;;;;;;;1.63;1.20;;;17.90;89.80;;;;;;6186143;23;20383;-79
2023/08/11 02:31:55;;;;;;;2.35;1.30;;;17.90;89.70;;;;;;6188535;23;20054;-79
2023/08/11 02:34:21;;;;;;;1.95;1.20;;;17.90;89.60;;;;;;6187232;23;20071;-79
2023/08/11 02:36:47;;;;;;;2.15;1.38;;;17.90;89.70;;;;;;6185104;23;20005;-79
2023/08/11 02:39:12;;;;;;;1.45;1.08;;;18.00;89.70;;;;;;6185277;23;20012;-79
2023/08/11 02:41:38;;;;;;;2.50;1.40;;;17.90;89.70;;;;;;6210703;23;20021;-79
2023/08/11 02:44:04;;;;;;;2.92;1.30;;;18.00;89.60;;;;;;6184611;23;20005;-79
2023/08/11 02:46:29;;;;;;;1.70;1.20;;;18.00;89.60;;;;;;6184490;23;20009;-79
2023/08/11 02:48:55;;;;;;;1.88;1.30;;;18.00;89.40;;;;;;6184814;23;20009;-79
2023/08/11 02:51:20;;;;;;;2.28;1.30;;;18.00;89.30;;;;;;6186015;23;20005;-79
2023/08/11 02:53:46;;;;;;;2.60;1.50;;;18.00;89.20;;;;;;6186765;23;20009;-79
2023/08/11 02:56:15;;;;;;;1.88;1.33;;;18.00;89.20;;;;;;6186581;23;20031;-79
2023/08/11 02:58:41;;;;;;;2.28;1.50;;;18.00;89.10;;;;;;6186974;23;20443;-79
2023/08/11 03:01:07;;;;;;;2.42;1.50;;;18.10;89.10;;;;;;6184676;23;20002;-79
2023/08/11 03:03:32;;;;;;;1.92;1.23;;;18.10;89.00;;;;;;6184249;23;20009;-78
2023/08/11 03:05:58;;;;;;;2.60;1.50;;;18.10;89.00;;;;;;6185490;23;20340;-79
2023/08/11 03:08:24;;;;;;;2.60;1.38;;;18.10;88.90;;;;;;6184252;23;20059;-80
2023/08/11 03:10:49;;;;;;;1.88;1.33;;;18.10;89.00;;;;;;6184348;23;20005;-79
2023/08/11 03:13:15;;;;;;;2.25;1.30;;;18.00;88.90;;;;;;6184426;23;20005;-79
2023/08/11 03:15:41;;;;;;;2.22;1.30;;;18.00;89.00;;;;;;6183986;23;20428;-79
2023/08/11 03:18:07;;;;;;;1.73;1.10;;;18.00;89.20;;;;;;6183648;23;20060;-79
2023/08/11 03:20:32;;;;;;;2.40;1.40;;;17.90;89.20;;;;;;6185615;23;20011;-79
2023/08/11 03:22:58;;;;;;;1.90;1.23;;;18.00;89.40;;;;;;6190375;23;20005;-81
2023/08/11 03:25:23;;;;;;;1.73;1.23;;;18.00;89.40;;;;;;6200221;23;20013;-81
2023/08/11 03:27:50;;;;;;;2.58;1.58;;;18.00;89.50;;;;;;6202716;23;20001;-81
2023/08/11 03:30:15;;;;;;;2.13;1.38;;;17.90;89.60;;;;;;6200068;23;20024;-81
2023/08/11 03:32:41;;;;;;;2.25;1.30;;;18.00;89.70;;;;;;6200580;23;19996;-80
2023/08/11 03:35:07;;;;;;;2.22;1.20;;;17.90;89.60;;;;;;6199256;23;20008;-82
2023/08/11 03:37:33;;;;;;;2.22;1.30;;;17.90;89.60;;;;;;6199596;23;20009;-79
2023/08/11 03:39:59;;;;;;;1.92;1.30;;;18.00;89.80;;;;;;6200375;23;20016;-78
2023/08/11 03:42:25;;;;;;;2.08;1.30;;;17.90;89.70;;;;;;6198310;23;20016;-80
2023/08/11 03:44:53;;;;;;;1.98;1.30;;;17.90;89.80;;;;;;6200094;23;20021;-81
2023/08/11 03:47:19;;;;;;;1.92;1.30;;;17.90;89.80;;;;;;6201392;23;20048;-80
2023/08/11 03:49:47;;;;;;;2.05;1.35;;;17.90;89.80;;;;;;6200945;23;20009;-80
2023/08/11 03:52:13;;;;;;;3.17;1.45;;;17.90;89.80;;;;;;6200597;23;20009;-81
2023/08/11 03:54:39;;;;;;;2.88;1.50;;;17.90;89.90;;;;;;6199660;23;20507;-80
2023/08/11 03:57:04;;;;;;;2.45;1.30;;;17.90;89.80;;;;;;6199387;23;20016;-80
2023/08/11 03:59:30;;;;;;;1.50;1.20;;;17.90;89.90;;;;;;6199244;23;20005;-80
2023/08/11 04:01:56;;;;;;;2.20;1.42;;;17.90;89.90;;;;;;6200258;23;20061;-80
2023/08/11 04:04:21;;;;;;;2.10;1.40;;;17.90;89.90;;;;;;6197635;23;20035;-80
2023/08/11 04:06:47;;;;;;;1.95;1.13;;;17.90;89.90;;;;;;6197612;23;20011;-79
2023/08/11 04:09:12;;;;;;;2.25;1.45;;;17.90;89.80;;;;;;6197794;23;20084;-80
2023/08/11 04:11:38;;;;;;;2.13;1.27;;;17.90;89.90;;;;;;6199256;23;20001;-80
2023/08/11 04:14:03;;;;;;;2.70;1.60;;;17.90;89.90;;;;;;6195471;23;20139;-79
2023/08/11 04:16:29;;;;;;;2.88;1.50;;;17.90;89.90;;;;;;6195830;23;20015;-80
2023/08/11 04:18:55;;;;;;;2.30;1.45;;;17.90;89.90;;;;;;6195108;23;20026;-80
2023/08/11 04:21:20;;;;;;;2.63;1.38;;;17.90;89.80;;;;;;6194032;23;20029;-80
2023/08/11 04:23:46;;;;;;;2.90;1.50;;;17.90;89.70;;;;;;6192392;23;20143;-79
2023/08/11 04:26:11;;;;;;;3.15;1.50;;;18.00;89.60;;;;;;6193224;23;20436;-80
2023/08/11 04:28:38;;;;;;;2.35;1.25;;;18.00;89.50;;;;;;6193608;23;20001;-81
2023/08/11 04:31:06;;;;;;;1.98;1.40;;;18.00;89.40;;;;;;6193688;23;20005;-80
2023/08/11 04:33:32;;;;;;;2.35;1.30;;;18.00;89.30;;;;;;6192186;23;20001;-79
2023/08/11 04:35:58;;;;;;;1.65;1.17;;;18.00;89.30;;;;;;6191859;23;20013;-81
2023/08/11 04:38:23;;;;;;;1.85;1.27;;;18.00;89.20;;;;;;6216537;23;20415;-79
2023/08/11 04:40:50;;;;;;;2.80;1.40;;;18.10;89.10;;;;;;6192037;23;20001;-79
2023/08/11 04:43:16;;;;;;;1.60;1.30;;;18.10;89.10;;;;;;6190049;23;20002;-81
2023/08/11 04:45:42;;;;;;;2.50;1.33;;;18.10;89.00;;;;;;6190321;23;20005;-79
2023/08/11 04:48:08;;;;;;;2.00;1.25;;;18.00;89.00;;;;;;6191004;23;20544;-79
2023/08/11 04:50:34;;;;;;;2.28;1.38;;;18.00;89.10;;;;;;6190694;23;20355;-80
2023/08/11 04:53:00;;;;;;;2.70;1.40;;;17.90;89.00;;;;;;6190120;23;20052;-78
2023/08/11 04:55:26;;;;;;;2.30;1.30;;;18.00;89.20;;;;;;6188695;23;20344;-80
2023/08/11 04:57:51;;;;;;;2.05;1.30;;;18.00;89.40;;;;;;6189495;23;20015;-79
2023/08/11 05:00:17;;;;;;;3.38;1.70;;;18.00;89.50;;;;;;6189596;23;20396;-79
2023/08/11 05:02:44;;;;;;;2.45;1.40;;;18.00;89.50;;;;;;6188163;23;20035;-79
2023/08/11 05:05:10;;;;;;;2.85;1.45;;;18.00;89.60;;;;;;6180567;23;20040;-82
2023/08/11 05:07:39;;;;;;;2.58;1.48;;;18.00;89.60;;;;;;6179521;23;20009;-80
2023/08/11 05:10:05;;;;;;;2.58;1.50;;;18.00;89.70;;;;;;6179501;23;20040;-78
2023/08/11 05:12:31;;;;;;;2.03;1.30;;;18.00;89.70;;;;;;6181421;23;20351;-79
2023/08/11 05:14:57;;;;;;;2.65;1.60;;;17.90;89.70;;;;;;6181949;23;20009;-79
2023/08/11 05:17:22;;;;;;;2.53;1.40;;;18.00;89.80;;;;;;6185181;23;20005;-78
2023/08/11 05:19:48;;;;;;;2.38;1.55;;;18.00;89.80;;;;;;6184793;23;20012;-79
2023/08/11 05:22:13;;;;;;;3.15;1.65;;;18.00;89.80;;;;;;6183694;23;20005;-79
2023/08/11 05:24:39;;;;;;;2.40;1.40;;;18.00;89.80;;;;;;6182331;23;20009;-80
2023/08/11 05:27:05;;;;;;;2.45;1.55;;;18.00;89.80;;;;;;6187149;23;20005;-80
2023/08/11 05:29:31;;;;;;;2.97;1.58;;;18.00;89.80;;;;;;6184343;23;20511;-81
2023/08/11 05:31:56;;;;;;;2.47;1.58;;;18.00;89.80;;;;;;6182025;23;20011;-79
2023/08/11 05:34:22;;;;;;;2.55;1.40;;;18.00;89.80;;;;;;6178377;23;20362;-82
2023/08/11 05:36:48;;;;;;;2.85;1.55;;;18.00;89.80;;;;;;6181277;23;20295;-82
2023/08/11 05:39:14;;;;;;;2.28;1.48;;;18.00;89.70;;;;;;6179628;23;20009;-83
2023/08/11 05:41:40;;;;;;;3.13;1.65;;;18.00;89.70;;;;;;6182774;23;20008;-82
2023/08/11 05:44:06;;;;;;;2.47;1.58;;;18.00;89.70;;;;;;6184153;23;20048;-79
2023/08/11 05:46:31;;;;;;;2.40;1.40;;;18.00;89.60;;;;;;6182482;23;20001;-80
2023/08/11 05:48:57;;;;;;;2.78;1.50;;;18.00;89.60;;;;;;6181396;23;20036;-79
2023/08/11 05:51:22;;;;;;;2.92;1.60;;;18.00;89.60;;;;;;6181184;23;20008;-81
2023/08/11 05:53:48;;;;;;;2.50;1.55;;;18.00;89.50;;;;;;6181172;23;20096;-81
2023/08/11 05:56:14;;;;;;;2.50;1.52;;;18.00;89.50;;;;;;6184473;23;20080;-80
2023/08/11 05:58:40;;;;;;;2.30;1.40;;;18.00;89.40;;;;;;6184658;23;20689;-79
2023/08/11 06:01:06;;;;;;;4.07;1.70;;;18.00;89.30;;;;;;6184304;23;20001;-80
2023/08/11 06:03:31;;;;;;;2.00;1.48;;;18.10;89.30;;;;;;6184904;23;20008;-79
2023/08/11 06:06:01;;;;;;;2.38;1.40;;;18.10;89.10;;;;;;6186511;23;20009;-81
2023/08/11 06:08:27;;;;;;;2.45;1.48;;;18.10;89.00;;;;;;6183353;23;20009;-81
2023/08/11 06:10:54;;;;;;;3.03;1.65;;;18.20;88.90;;;;;;6207303;23;20344;-79
2023/08/11 06:13:19;;;;;;;3.05;1.80;;;18.20;88.80;;;;;;6182709;23;20428;-80
2023/08/11 06:15:45;;;;;;;3.13;1.50;;;18.20;88.80;;;;;;6181906;23;20005;-82
2023/08/11 06:18:11;;;;;;;4.18;1.58;;;18.20;88.70;;;;;;6175245;23;20077;-81
2023/08/11 06:20:37;;;;;;;2.92;1.60;;;18.20;88.60;;;;;;6181528;23;20016;-81
2023/08/11 06:23:03;;;;;;;3.25;1.60;;;18.30;88.60;;;;;;6180392;23;20396;-81
2023/08/11 06:25:29;;;;;;;2.45;1.45;;;18.30;88.60;;;;;;6183315;23;20005;-81
2023/08/11 06:27:54;;;;;;;3.50;1.50;;;18.30;88.50;;;;;;6181037;23;20041;-81
2023/08/11 06:30:20;;;;;;;2.55;1.50;;;18.30;88.50;;;;;;6180275;23;20040;-81
2023/08/11 06:32:45;;;;;;;4.43;1.70;;;18.30;88.50;;;;;;6178736;23;20444;-80
2023/08/11 06:35:11;;;;;;;2.80;1.35;;;18.30;88.50;;;;;;6179697;23;20044;-82
2023/08/11 06:37:36;;;;;;;1.92;1.33;;;18.30;88.60;;;;;;6178399;23;20044;-82
2023/08/11 06:40:03;;;;;;;2.47;1.40;;;18.20;88.50;;;;;;6177984;23;20165;-81
2023/08/11 06:42:28;;;;;;;3.28;1.50;;;18.20;88.40;;;;;;6181253;23;20380;-80
2023/08/11 06:44:54;;;;;;;2.08;1.40;;;18.30;88.50;;;;;;6181637;23;20102;-79
2023/08/11 06:47:19;;;;;;;3.42;1.60;;;18.30;88.40;;;;;;6181238;23;20009;-80
2023/08/11 06:49:45;;;;;;;4.32;1.63;;;18.30;88.50;;;;;;6181450;23;20016;-81
2023/08/11 06:52:11;;;;;;;1.60;1.30;;;18.30;88.40;;;;;;6183674;23;20009;-80
2023/08/11 06:54:37;;;;;;;2.40;1.45;;;18.30;88.40;;;;;;6182053;23;20423;-81
2023/08/11 06:57:03;;;;;;;2.88;1.75;;;18.30;88.40;;;;;;6195676;23;20019;-81
2023/08/11 06:59:29;;;;;;;2.38;1.58;;;18.30;88.40;;;;;;6182800;23;20289;-82
2023/08/11 07:01:54;;;;;;;3.33;1.50;;;18.30;88.30;;;;;;6184038;23;20009;-81
2023/08/11 07:04:20;;;;;;;5.57;1.67;;;18.40;88.30;;;;;;6181263;23;20001;-81
2023/08/11 07:06:46;;;;;;;3.20;1.40;;;18.40;88.30;;;;;;6182056;23;20012;-82
2023/08/11 07:09:12;;;;;;;3.72;1.58;;;18.40;88.20;;;;;;6180823;23;20088;-82
2023/08/11 07:11:38;;;;;;;3.88;1.52;;;18.40;88.10;;;;;;6181675;23;20009;-81
2023/08/11 07:14:04;;;;;;;3.00;1.42;;;18.40;88.10;;;;;;6181970;23;20004;-81
2023/08/11 07:16:29;;;;;;;2.55;1.40;;;18.40;87.90;;;;;;6183292;23;20028;-81
2023/08/11 07:18:55;;;;;;;3.40;1.70;;;18.40;87.80;;;;;;6195244;23;20069;-82
2023/08/11 07:21:20;;;;;;;3.08;1.70;;;18.40;87.80;;;;;;6187117;23;20046;-82
2023/08/11 07:23:46;;;;;;;3.40;1.58;;;18.50;87.80;;;;;;6184405;23;20011;-82
2023/08/11 07:26:11;;;;;;;2.38;1.50;;;18.50;87.70;;;;;;6181207;23;20111;-81
2023/08/11 07:28:37;;;;;;;2.63;1.48;;;18.50;87.70;;;;;;6182196;23;20032;-82
2023/08/11 07:31:02;;;;;;;3.42;1.35;;;18.60;87.70;;;;;;6181698;23;20016;-82
2023/08/11 07:33:28;;;;;;;2.80;1.50;;;18.50;87.60;;;;;;6181997;23;20004;-82
2023/08/11 07:35:53;;;;;;;3.10;1.55;;;18.50;87.50;;;;;;6182888;23;20083;-82
2023/08/11 07:38:20;;;;;;;3.00;1.60;;;18.60;87.50;;;;;;6182702;23;20073;-82
2023/08/11 07:40:47;;;;;;;2.65;1.52;;;18.60;87.40;;;;;;6181290;23;20447;-82
2023/08/11 07:43:12;;;;;;;2.50;1.60;;;18.60;87.30;;;;;;6205807;23;20617;-81
2023/08/11 07:45:38;;;;;;;3.60;1.50;;;18.70;87.20;;;;;;6181840;23;20001;-81
2023/08/11 07:48:04;;;;;;;3.00;1.55;;;18.80;87.10;;;;;;6180525;23;20047;-81
2023/08/11 07:50:30;;;;;;;2.88;1.50;;;18.70;86.90;;;;;;6180646;23;20015;-82
2023/08/11 07:52:55;;;;;;;2.58;1.50;;;18.80;86.70;;;;;;6180083;23;20009;-82
2023/08/11 07:55:21;;;;;;;2.47;1.40;;;18.80;86.60;;;;;;6181285;23;20522;-82
2023/08/11 07:57:46;;;;;;;2.50;1.50;;;18.90;86.50;;;;;;6183997;23;20016;-81
2023/08/11 08:00:16;;;;;;;2.22;1.42;;;18.90;86.40;;;;;;6182009;23;20005;-82
2023/08/11 08:02:43;;;;;;;3.22;1.50;;;18.90;86.40;;;;;;6179608;23;20005;-81
2023/08/11 08:05:09;;;;;;;2.88;1.40;;;18.90;86.30;;;;;;6178946;23;20344;-82
2023/08/11 08:07:35;;;;;;;3.13;1.58;;;19.00;86.20;;;;;;6180255;23;20004;-82
2023/08/11 08:10:00;;;;;;;2.58;1.40;;;18.90;86.20;;;;;;6178916;23;20020;-82
2023/08/11 08:12:26;;;;;;;2.90;1.40;;;18.90;86.20;;;;;;6179796;23;20135;-82
2023/08/11 08:14:52;;;;;;;2.95;1.40;;;19.00;86.40;;;;;;6179124;23;20317;-80
2023/08/11 08:17:18;;;;;;;2.17;1.40;;;18.90;86.40;;;;;;6179112;23;20009;-81
2023/08/11 08:19:43;;;;;;;2.78;1.23;;;18.90;86.40;;;;;;6179299;23;20391;-82
2023/08/11 08:22:09;;;;;;;2.95;1.65;;;18.90;86.40;;;;;;6181251;23;20004;-83
2023/08/11 08:24:34;;;;;;;2.72;1.23;;;18.90;86.40;;;;;;6178482;23;20444;-83
2023/08/11 08:27:00;;;;;;;3.28;1.30;;;19.00;86.50;;;;;;6180356;23;20013;-82
2023/08/11 08:29:25;;;;;;;1.88;1.30;;;18.90;86.90;;;;;;6179436;23;20475;-82
2023/08/11 08:31:51;;;;;;;2.38;1.40;;;18.90;86.30;;;;;;6175870;23;20478;-82
2023/08/11 08:34:16;;;;;;;2.20;1.35;;;19.00;86.40;;;;;;6177486;23;20015;-82
2023/08/11 08:36:42;;;;;;;2.05;1.30;;;19.00;86.40;;;;;;6178146;23;20015;-83
2023/08/11 08:39:08;;;;;;;1.83;1.30;;;19.00;86.30;;;;;;6178901;23;20076;-82
2023/08/11 08:41:37;;;;;;;2.30;1.42;;;19.00;86.40;;;;;;6178237;23;20035;-82
2023/08/11 08:44:03;;;;;;;3.30;1.42;;;19.00;86.30;;;;;;6179652;23;20438;-82
2023/08/11 08:46:31;;;;;;;2.95;1.67;;;19.00;86.20;;;;;;6178909;23;20043;-82
2023/08/11 08:49:11;;;;;;;1.60;1.15;;;19.10;86.30;;;;;;6179816;23;20013;-81
2023/08/11 08:51:39;;;;;;;2.08;1.40;;;19.00;86.30;;;;;;6179966;23;20091;-81
2023/08/11 08:54:08;;;;;;;2.38;1.42;;;19.00;86.30;;;;;;6180775;23;20443;-82
2023/08/11 08:56:38;;;;;;;2.03;1.40;;;19.10;86.30;;;;;;6179559;23;20009;-82
2023/08/11 08:59:04;;;;;;;2.35;1.27;;;19.10;86.30;;;;;;6179645;23;20348;-82
2023/08/11 09:01:30;;;;;;;2.97;1.40;;;19.10;86.30;;;;;;6179258;23;20028;-82
2023/08/11 09:03:57;;;;;;;2.83;1.50;;;19.10;86.30;;;;;;6179715;23;20009;-82
2023/08/11 09:06:25;;;;;;;3.47;1.50;;;19.10;86.30;;;;;;6204349;23;20016;-82
2023/08/11 09:08:50;;;;;;;2.42;1.35;;;19.10;86.20;;;;;;6181193;23;20444;-83
2023/08/11 09:11:16;;;;;;;2.00;1.30;;;19.20;86.20;;;;;;6180098;23;20016;-83
2023/08/11 09:13:44;;;;;;;2.20;1.30;;;19.20;86.20;;;;;;6179840;23;20051;-82
2023/08/11 09:16:13;;;;;;;2.30;1.40;;;19.20;86.20;;;;;;6177064;23;20514;-82
2023/08/11 09:18:39;;;;;;;2.38;1.40;;;19.20;86.10;;;;;;6180413;23;20458;-82
2023/08/11 09:21:05;;;;;;;1.90;1.30;;;19.30;86.00;;;;;;6180122;23;20009;-83
2023/08/11 09:23:32;;;;;;;1.98;1.30;;;19.30;85.90;;;;;;6181227;23;20005;-82
2023/08/11 09:25:57;;;;;;;3.22;1.42;;;19.30;85.80;;;;;;6179107;23;20092;-82
2023/08/11 09:28:23;;;;;;;1.60;1.20;;;19.30;85.70;;;;;;6179291;23;20046;-82
2023/08/11 09:30:50;;;;;;;1.95;1.30;;;19.40;85.70;;;;;;6180538;23;20016;-82
2023/08/11 09:33:17;;;;;;;2.42;1.23;;;19.40;85.50;;;;;;6179607;23;20348;-83
2023/08/11 09:35:43;;;;;;;2.67;1.48;;;19.40;85.50;;;;;;6178336;23;20019;-83
2023/08/11 09:38:09;;;;;;;2.60;1.60;;;19.40;85.40;;;;;;6180841;23;20431;-82
2023/08/11 09:40:35;;;;;;;2.13;1.38;;;19.40;85.40;;;;;;6178981;23;20185;-82
2023/08/11 09:43:00;;;;;;;2.55;1.60;;;19.50;85.50;;;;;;6178559;23;20011;-81
2023/08/11 09:45:26;;;;;;;1.92;1.10;;;19.50;85.60;;;;;;6180415;23;20080;-81
2023/08/11 09:47:51;;;;;;;2.08;1.30;;;19.40;85.50;;;;;;6181186;23;20013;-80
2023/08/11 09:50:17;;;;;;;2.47;1.20;;;19.40;85.40;;;;;;6182320;23;20008;-80
2023/08/11 09:52:43;;;;;;;2.22;1.30;;;19.50;85.40;;;;;;6183364;23;20005;-79
2023/08/11 09:55:13;;;;;;;2.03;1.40;;;19.40;85.50;;;;;;6184259;23;20005;-79
2023/08/11 09:57:43;;;;;;;1.92;1.30;;;19.40;85.50;;;;;;6183322;23;20004;-81
2023/08/11 10:00:12;;;;;;;2.95;1.25;;;19.40;85.50;;;;;;6185436;23;20005;-79
2023/08/11 10:02:45;;;;;;;2.10;1.40;;;19.40;85.60;;;;;;6185383;23;19999;-81
2023/08/11 10:05:13;;;;;;;1.70;1.10;;;19.40;85.60;;;;;;6183929;23;20001;-82
2023/08/11 10:07:41;;;;;;;1.40;1.00;;;19.40;85.70;;;;;;6185794;23;20001;-80
2023/08/11 10:10:14;;;;;;;1.73;1.10;;;19.40;85.80;;;;;;6185178;23;20008;-81
2023/08/11 10:12:45;;;;;;;1.75;1.20;;;19.50;85.90;;;;;;6185507;23;20336;-81
2023/08/11 10:15:11;;;;;;;2.40;1.38;;;19.50;85.90;;;;;;6183762;23;20001;-81
2023/08/11 10:17:37;;;;;;;2.83;1.50;;;19.50;85.90;;;;;;6183791;23;20031;-81
2023/08/11 10:20:04;;;;;;;2.00;1.30;;;19.50;85.90;;;;;;6185552;23;20364;-81
2023/08/11 10:22:33;;;;;;;1.98;1.17;;;19.50;85.90;;;;;;6185564;23;20130;-81
2023/08/11 10:25:02;;;;;;;2.72;1.30;;;19.50;85.90;;;;;;6183823;23;20004;-80
2023/08/11 10:27:29;;;;;;;2.75;1.52;;;19.40;85.80;;;;;;6190059;23;20033;-83
2023/08/11 10:29:56;;;;;;;2.13;1.20;;;19.50;85.90;;;;;;6191872;23;20017;-83
2023/08/11 10:32:31;;;;;;;2.58;1.35;;;19.50;85.90;;;;;;6191764;23;20005;-82
2023/08/11 10:34:57;;;;;;;2.28;1.27;;;19.50;85.90;;;;;;6191363;23;20028;-82
2023/08/11 10:37:30;;;;;;;2.28;1.30;;;19.50;86.00;;;;;;6191045;23;20005;-82
2023/08/11 10:40:04;;;;;;;2.53;1.30;;;19.50;85.90;;;;;;6192359;23;19997;-82
2023/08/11 10:42:30;;;;;;;2.35;1.20;;;19.50;86.00;;;;;;6192328;23;19997;-82
2023/08/11 10:45:10;;;;;;;3.00;1.20;;;19.50;86.00;;;;;;6190148;23;20347;-82
2023/08/11 10:47:58;;;;;;;1.85;1.25;;;19.50;86.00;;;;;;6192061;23;20012;-82
2023/08/11 10:50:23;;;;;;;1.58;1.10;;;19.50;86.00;;;;;;6191613;23;20008;-83
2023/08/11 10:53:19;;;;;;;2.60;1.45;;;19.50;86.00;;;;;;6191301;23;20036;-82
2023/08/11 10:56:02;;;;;;;1.77;1.17;;;19.50;85.90;;;;;;6187691;23;20016;-82
2023/08/11 10:58:30;;;;;;;1.58;1.17;;;19.60;85.80;;;;;;6216623;23;20011;-82
2023/08/11 11:00:58;;;;;;;2.25;1.27;;;19.60;85.70;;;;;;6191175;23;20428;-83
2023/08/11 11:03:23;;;;;;;2.05;1.27;;;19.60;85.70;;;;;;6190342;23;20031;-82
2023/08/11 11:05:49;;;;;;;2.22;1.30;;;19.60;85.60;;;;;;6191478;23;20344;-82
2023/08/11 11:08:14;;;;;;;2.45;1.10;;;19.60;85.60;;;;;;6190260;23;20032;-82
2023/08/11 11:10:41;;;;;;;1.73;1.20;;;19.60;85.50;;;;;;6188771;23;20001;-81
2023/08/11 11:13:07;;;;;;;1.75;1.10;;;19.60;85.60;;;;;;6189179;23;20015;-82
2023/08/11 11:15:33;;;;;;;2.10;1.23;;;19.60;85.50;;;;;;6188892;23;20096;-81
2023/08/11 11:17:59;;;;;;;2.40;1.20;;;19.60;85.50;;;;;;6189146;23;20095;-81
2023/08/11 11:20:26;;;;;;;1.80;1.20;;;19.60;85.60;;;;;;6190606;23;20436;-81
2023/08/11 11:22:51;;;;;;;1.98;1.30;;;19.60;85.70;;;;;;6189035;23;19997;-82
2023/08/11 11:25:18;;;;;;;2.15;1.20;;;19.60;85.80;;;;;;6188623;23;20084;-81
2023/08/11 11:27:44;;;;;;;1.92;1.10;;;19.60;85.90;;;;;;6188362;23;20001;-81
2023/08/11 11:30:11;;;;;;;2.05;1.20;;;19.60;85.90;;;;;;6190079;23;20027;-81
2023/08/11 11:32:37;;;;;;;2.50;1.30;;;19.50;85.90;;;;;;6187431;23;20016;-83
2023/08/11 11:35:07;;;;;;;2.13;1.25;;;19.50;86.10;;;;;;6189843;23;20052;-81
2023/08/11 11:37:33;;;;;;;1.85;1.23;;;19.50;86.10;;;;;;6187600;23;20379;-81
2023/08/11 11:40:01;;;;;;;1.80;1.23;;;19.50;86.20;;;;;;6187025;23;20001;-81
2023/08/11 11:42:31;;;;;;;1.45;1.10;;;19.50;86.20;;;;;;6187091;23;20036;-81
2023/08/11 11:44:58;;;;;;;2.15;1.30;;;19.50;86.30;;;;;;6188826;23;20001;-81
2023/08/11 11:47:24;;;;;;;2.00;1.20;;;19.50;86.50;;;;;;6186286;23;20016;-82
2023/08/11 11:50:07;;;;;;;2.10;1.30;;;19.40;86.40;;;;;;6186213;23;20381;-80
2023/08/11 11:52:33;;;;;;;2.25;1.40;;;19.50;86.50;;;;;;6186313;23;20008;-81
2023/08/11 11:55:00;;;;;;;1.80;1.20;;;19.40;86.50;;;;;;6186030;23;20011;-82
2023/08/11 11:57:26;;;;;;;1.90;1.20;;;19.40;86.50;;;;;;6185944;23;20004;-81
2023/08/11 11:59:53;;;;;;;2.20;1.40;;;19.40;86.60;;;;;;6185551;23;20052;-81
2023/08/11 12:02:19;;;;;;;2.00;1.20;;;19.40;86.60;;;;;;6186619;23;20056;-83
2023/08/11 12:04:47;;;;;;;3.08;1.48;;;19.40;86.60;;;;;;6187147;23;19997;-81
2023/08/11 12:07:31;;;;;;;2.28;1.27;;;19.40;86.70;;;;;;6185708;23;20036;-81
2023/08/11 12:09:58;;;;;;;2.00;1.17;;;19.40;86.70;;;;;;6209925;23;20013;-81
2023/08/11 12:12:25;;;;;;;2.35;1.17;;;19.40;86.70;;;;;;6185346;23;20411;-81
2023/08/11 12:14:52;;;;;;;2.08;1.30;;;19.40;86.70;;;;;;6184727;23;20033;-82
2023/08/11 12:17:18;;;;;;;1.73;1.30;;;19.40;86.80;;;;;;6185304;23;20009;-81
2023/08/11 12:19:47;;;;;;;2.15;1.27;;;19.40;86.80;;;;;;6184054;23;20080;-82
2023/08/11 12:22:12;;;;;;;2.38;1.35;;;19.40;86.80;;;;;;6184446;23;20012;-82
2023/08/11 12:24:38;;;;;;;2.03;1.20;;;19.40;86.80;;;;;;6184289;23;20340;-81
2023/08/11 12:27:04;;;;;;;1.95;1.20;;;19.30;86.90;;;;;;6184642;23;20008;-81
2023/08/11 12:29:29;;;;;;;2.20;1.30;;;19.40;86.80;;;;;;6184720;23;20024;-81
2023/08/11 12:31:55;;;;;;;1.70;1.20;;;19.40;86.80;;;;;;6186612;23;20013;-81
2023/08/11 12:34:21;;;;;;;2.88;1.40;;;19.40;86.70;;;;;;6183552;23;20400;-81
2023/08/11 12:36:46;;;;;;;1.80;1.20;;;19.40;86.60;;;;;;6185308;23;20013;-81
2023/08/11 12:39:12;;;;;;;2.00;1.20;;;19.40;86.60;;;;;;6183851;23;20001;-81
2023/08/11 12:41:38;;;;;;;1.83;1.20;;;19.40;86.60;;;;;;6183958;23;20035;-81
2023/08/11 12:44:04;;;;;;;2.10;1.20;;;19.40;86.50;;;;;;6185688;23;20056;-81
2023/08/11 12:46:30;;;;;;;1.65;1.00;;;19.40;86.50;;;;;;6183327;23;20031;-81